sensor_id;sensor_type;location;lat;lon;timestamp;temperature;humidity
55064;DHT22;40963;52.168;21.296;2023-07-09T00:02:20;15.80;99.90
55064;DHT22;40963;52.168;21.296;2023-07-09T00:04:46;15.80;99.90
55064;DHT22;40963;52.168;21.296;2023-07-09T00:07:29;15.80;99.90
55064;DHT22;40963;52.168;21.296;2023-07-09T00:09:56;15.80;99.90
55064;DHT22;40963;52.168;21.296;2023-07-09T00:12:22;15.80;99.90
55064;DHT22;40963;52.168;21.296;2023-07-09T00:14:48;15.80;99.90
55064;DHT22;40963;52.168;21.296;2023-07-09T00:17:28;15.80;99.90
55064;DHT22;40963;52.168;21.296;2023-07-09T00:19:54;15.80;99.90
55064;DHT22;40963;52.168;21.296;2023-07-09T00:22:20;15.80;99.90
55064;DHT22;40963;52.168;21.296;2023-07-09T00:24:48;15.70;99.90
55064;DHT22;40963;52.168;21.296;2023-07-09T00:27:17;15.70;99.90
55064;DHT22;40963;52.168;21.296;2023-07-09T00:29:43;15.70;99.90
55064;DHT22;40963;52.168;21.296;2023-07-09T00:32:16;15.70;99.90
55064;DHT22;40963;52.168;21.296;2023-07-09T00:34:48;15.60;99.90
55064;DHT22;40963;52.168;21.296;2023-07-09T00:37:16;15.60;99.90
55064;DHT22;40963;52.168;21.296;2023-07-09T00:39:43;15.60;99.90
55064;DHT22;40963;52.168;21.296;2023-07-09T00:42:20;15.60;99.90
55064;DHT22;40963;52.168;21.296;2023-07-09T00:44:50;15.60;99.90
55064;DHT22;40963;52.168;21.296;2023-07-09T00:47:23;15.60;99.90
55064;DHT22;40963;52.168;21.296;2023-07-09T00:49:49;15.50;99.90
55064;DHT22;40963;52.168;21.296;2023-07-09T00:52:21;15.60;99.90
55064;DHT22;40963;52.168;21.296;2023-07-09T00:54:48;15.50;99.90
55064;DHT22;40963;52.168;21.296;2023-07-09T00:57:18;15.50;99.90
55064;DHT22;40963;52.168;21.296;2023-07-09T00:59:50;15.50;99.90
55064;DHT22;40963;52.168;21.296;2023-07-09T01:02:17;15.50;99.90
55064;DHT22;40963;52.168;21.296;2023-07-09T01:04:49;15.50;99.90
55064;DHT22;40963;52.168;21.296;2023-07-09T01:07:16;15.40;99.90
55064;DHT22;40963;52.168;21.296;2023-07-09T01:09:42;15.40;99.90
55064;DHT22;40963;52.168;21.296;2023-07-09T01:12:09;15.40;99.90
55064;DHT22;40963;52.168;21.296;2023-07-09T01:14:36;15.30;99.90
55064;DHT22;40963;52.168;21.296;2023-07-09T01:17:05;15.30;99.90
55064;DHT22;40963;52.168;21.296;2023-07-09T01:19:38;15.30;99.90
55064;DHT22;40963;52.168;21.296;2023-07-09T01:22:12;15.30;99.90
55064;DHT22;40963;52.168;21.296;2023-07-09T01:24:58;15.30;99.90
55064;DHT22;40963;52.168;21.296;2023-07-09T01:27:33;15.30;99.90
55064;DHT22;40963;52.168;21.296;2023-07-09T01:30:01;15.30;99.90
55064;DHT22;40963;52.168;21.296;2023-07-09T01:32:27;15.30;99.90
55064;DHT22;40963;52.168;21.296;2023-07-09T01:34:55;15.20;99.90
55064;DHT22;40963;52.168;21.296;2023-07-09T01:37:25;15.20;99.90
55064;DHT22;40963;52.168;21.296;2023-07-09T01:39:51;15.20;99.90
55064;DHT22;40963;52.168;21.296;2023-07-09T01:42:19;15.20;99.90
55064;DHT22;40963;52.168;21.296;2023-07-09T01:44:47;15.20;99.90
55064;DHT22;40963;52.168;21.296;2023-07-09T01:47:13;15.30;99.90
55064;DHT22;40963;52.168;21.296;2023-07-09T01:49:39;15.20;99.90
55064;DHT22;40963;52.168;21.296;2023-07-09T01:52:06;15.20;99.90
55064;DHT22;40963;52.168;21.296;2023-07-09T01:54:35;15.20;99.90
55064;DHT22;40963;52.168;21.296;2023-07-09T01:57:33;15.20;99.90
55064;DHT22;40963;52.168;21.296;2023-07-09T02:00:10;15.20;99.90
55064;DHT22;40963;52.168;21.296;2023-07-09T02:02:37;15.20;99.90
55064;DHT22;40963;52.168;21.296;2023-07-09T02:05:05;15.20;99.90
55064;DHT22;40963;52.168;21.296;2023-07-09T02:07:31;15.20;99.90
55064;DHT22;40963;52.168;21.296;2023-07-09T02:09:57;15.20;99.90
55064;DHT22;40963;52.168;21.296;2023-07-09T02:12:24;15.20;99.90
55064;DHT22;40963;52.168;21.296;2023-07-09T02:14:49;15.20;99.90
55064;DHT22;40963;52.168;21.296;2023-07-09T02:17:15;15.10;99.90
55064;DHT22;40963;52.168;21.296;2023-07-09T02:19:41;15.20;99.90
55064;DHT22;40963;52.168;21.296;2023-07-09T02:22:07;15.10;99.90
55064;DHT22;40963;52.168;21.296;2023-07-09T02:24:34;15.10;99.90
55064;DHT22;40963;52.168;21.296;2023-07-09T02:27:01;15.10;99.90
55064;DHT22;40963;52.168;21.296;2023-07-09T02:29:28;15.10;99.90
55064;DHT22;40963;52.168;21.296;2023-07-09T02:31:56;15.10;99.90
55064;DHT22;40963;52.168;21.296;2023-07-09T02:34:22;15.20;99.90
55064;DHT22;40963;52.168;21.296;2023-07-09T02:36:54;15.20;99.90
55064;DHT22;40963;52.168;21.296;2023-07-09T02:39:21;15.20;99.90
55064;DHT22;40963;52.168;21.296;2023-07-09T02:41:47;15.20;99.90
55064;DHT22;40963;52.168;21.296;2023-07-09T02:44:13;15.20;99.90
55064;DHT22;40963;52.168;21.296;2023-07-09T02:46:39;15.20;99.90
55064;DHT22;40963;52.168;21.296;2023-07-09T02:49:05;15.20;99.90
55064;DHT22;40963;52.168;21.296;2023-07-09T02:51:31;15.10;99.90
55064;DHT22;40963;52.168;21.296;2023-07-09T02:53:58;15.10;99.90
55064;DHT22;40963;52.168;21.296;2023-07-09T02:56:24;15.20;99.90
55064;DHT22;40963;52.168;21.296;2023-07-09T02:58:51;15.20;99.90
55064;DHT22;40963;52.168;21.296;2023-07-09T03:01:17;15.20;99.90
55064;DHT22;40963;52.168;21.296;2023-07-09T03:03:43;15.20;99.90
55064;DHT22;40963;52.168;21.296;2023-07-09T03:06:09;15.20;99.90
55064;DHT22;40963;52.168;21.296;2023-07-09T03:08:35;15.20;99.90
55064;DHT22;40963;52.168;21.296;2023-07-09T03:11:10;15.20;99.90
55064;DHT22;40963;52.168;21.296;2023-07-09T03:13:36;15.20;99.90
55064;DHT22;40963;52.168;21.296;2023-07-09T03:16:02;15.20;99.90
55064;DHT22;40963;52.168;21.296;2023-07-09T03:18:27;15.20;99.90
55064;DHT22;40963;52.168;21.296;2023-07-09T03:20:53;15.30;99.90
55064;DHT22;40963;52.168;21.296;2023-07-09T03:23:19;15.30;99.90
55064;DHT22;40963;52.168;21.296;2023-07-09T03:25:44;15.30;99.90
55064;DHT22;40963;52.168;21.296;2023-07-09T03:28:14;15.30;99.90
55064;DHT22;40963;52.168;21.296;2023-07-09T03:30:44;15.30;99.90
55064;DHT22;40963;52.168;21.296;2023-07-09T03:33:11;15.30;99.90
55064;DHT22;40963;52.168;21.296;2023-07-09T03:35:37;15.30;99.90
55064;DHT22;40963;52.168;21.296;2023-07-09T03:38:04;15.30;99.90
55064;DHT22;40963;52.168;21.296;2023-07-09T03:40:30;15.40;99.90
55064;DHT22;40963;52.168;21.296;2023-07-09T03:42:56;15.40;99.90
55064;DHT22;40963;52.168;21.296;2023-07-09T03:45:22;15.40;99.90
55064;DHT22;40963;52.168;21.296;2023-07-09T03:47:48;15.50;99.90
55064;DHT22;40963;52.168;21.296;2023-07-09T03:50:14;15.50;99.90
55064;DHT22;40963;52.168;21.296;2023-07-09T03:52:40;15.60;99.90
55064;DHT22;40963;52.168;21.296;2023-07-09T03:55:06;15.50;99.90
55064;DHT22;40963;52.168;21.296;2023-07-09T03:57:33;15.60;99.90
55064;DHT22;40963;52.168;21.296;2023-07-09T03:59:59;15.60;99.90
55064;DHT22;40963;52.168;21.296;2023-07-09T04:02:24;15.70;99.90
55064;DHT22;40963;52.168;21.296;2023-07-09T04:04:50;15.70;99.90
55064;DHT22;40963;52.168;21.296;2023-07-09T04:07:16;15.70;99.90
55064;DHT22;40963;52.168;21.296;2023-07-09T04:09:42;15.80;99.90
55064;DHT22;40963;52.168;21.296;2023-07-09T04:12:08;15.80;99.90
55064;DHT22;40963;52.168;21.296;2023-07-09T04:14:35;15.80;99.90
55064;DHT22;40963;52.168;21.296;2023-07-09T04:17:00;15.90;99.90
55064;DHT22;40963;52.168;21.296;2023-07-09T04:19:26;16.00;99.90
55064;DHT22;40963;52.168;21.296;2023-07-09T04:21:52;16.00;99.90
55064;DHT22;40963;52.168;21.296;2023-07-09T04:24:18;16.00;99.90
55064;DHT22;40963;52.168;21.296;2023-07-09T04:26:44;16.10;99.90
55064;DHT22;40963;52.168;21.296;2023-07-09T04:29:11;16.10;99.90
55064;DHT22;40963;52.168;21.296;2023-07-09T04:31:38;16.20;99.90
55064;DHT22;40963;52.168;21.296;2023-07-09T04:34:04;16.20;99.90
55064;DHT22;40963;52.168;21.296;2023-07-09T04:36:30;16.30;99.90
55064;DHT22;40963;52.168;21.296;2023-07-09T04:38:56;16.30;99.90
55064;DHT22;40963;52.168;21.296;2023-07-09T04:41:22;16.40;99.90
55064;DHT22;40963;52.168;21.296;2023-07-09T04:43:48;16.50;99.90
55064;DHT22;40963;52.168;21.296;2023-07-09T04:46:14;16.50;99.90
55064;DHT22;40963;52.168;21.296;2023-07-09T04:48:39;16.60;99.90
55064;DHT22;40963;52.168;21.296;2023-07-09T04:51:05;16.60;99.90
55064;DHT22;40963;52.168;21.296;2023-07-09T04:53:31;16.80;99.90
55064;DHT22;40963;52.168;21.296;2023-07-09T04:55:57;16.90;99.90
55064;DHT22;40963;52.168;21.296;2023-07-09T04:58:22;16.90;99.90
55064;DHT22;40963;52.168;21.296;2023-07-09T05:00:48;17.00;99.90
55064;DHT22;40963;52.168;21.296;2023-07-09T05:03:16;17.10;99.90
55064;DHT22;40963;52.168;21.296;2023-07-09T05:05:43;17.10;99.90
55064;DHT22;40963;52.168;21.296;2023-07-09T05:08:09;17.20;99.90
55064;DHT22;40963;52.168;21.296;2023-07-09T05:10:43;17.20;99.90
55064;DHT22;40963;52.168;21.296;2023-07-09T05:13:09;17.30;99.90
55064;DHT22;40963;52.168;21.296;2023-07-09T05:15:39;17.40;99.90
55064;DHT22;40963;52.168;21.296;2023-07-09T05:18:05;17.50;99.90
55064;DHT22;40963;52.168;21.296;2023-07-09T05:20:30;17.60;99.90
55064;DHT22;40963;52.168;21.296;2023-07-09T05:22:56;17.70;99.90
55064;DHT22;40963;52.168;21.296;2023-07-09T05:25:22;17.80;99.90
55064;DHT22;40963;52.168;21.296;2023-07-09T05:27:47;17.90;99.90
55064;DHT22;40963;52.168;21.296;2023-07-09T05:30:13;17.90;99.90
55064;DHT22;40963;52.168;21.296;2023-07-09T05:32:39;18.00;99.50
55064;DHT22;40963;52.168;21.296;2023-07-09T05:35:05;18.10;99.30
55064;DHT22;40963;52.168;21.296;2023-07-09T05:37:30;18.20;98.70
55064;DHT22;40963;52.168;21.296;2023-07-09T05:39:56;18.20;98.50
55064;DHT22;40963;52.168;21.296;2023-07-09T05:42:22;18.30;98.20
55064;DHT22;40963;52.168;21.296;2023-07-09T05:44:47;18.40;98.10
55064;DHT22;40963;52.168;21.296;2023-07-09T05:47:13;18.50;97.30
55064;DHT22;40963;52.168;21.296;2023-07-09T05:49:39;18.50;96.60
55064;DHT22;40963;52.168;21.296;2023-07-09T05:52:05;18.60;96.20
55064;DHT22;40963;52.168;21.296;2023-07-09T05:54:31;18.60;95.70
55064;DHT22;40963;52.168;21.296;2023-07-09T05:56:57;18.70;95.50
55064;DHT22;40963;52.168;21.296;2023-07-09T05:59:22;18.80;95.50
55064;DHT22;40963;52.168;21.296;2023-07-09T06:01:48;18.90;94.90
55064;DHT22;40963;52.168;21.296;2023-07-09T06:04:14;18.90;94.70
55064;DHT22;40963;52.168;21.296;2023-07-09T06:06:40;19.00;94.50
55064;DHT22;40963;52.168;21.296;2023-07-09T06:09:09;19.10;94.40
55064;DHT22;40963;52.168;21.296;2023-07-09T06:11:35;19.20;93.90
55064;DHT22;40963;52.168;21.296;2023-07-09T06:14:01;19.30;93.10
55064;DHT22;40963;52.168;21.296;2023-07-09T06:16:27;19.30;92.50
55064;DHT22;40963;52.168;21.296;2023-07-09T06:18:53;19.40;92.30
55064;DHT22;40963;52.168;21.296;2023-07-09T06:21:18;19.40;92.00
55064;DHT22;40963;52.168;21.296;2023-07-09T06:23:45;19.50;91.60
55064;DHT22;40963;52.168;21.296;2023-07-09T06:26:11;19.60;91.40
55064;DHT22;40963;52.168;21.296;2023-07-09T06:28:37;19.70;91.30
55064;DHT22;40963;52.168;21.296;2023-07-09T06:31:02;19.80;90.80
55064;DHT22;40963;52.168;21.296;2023-07-09T06:33:28;19.90;90.70
55064;DHT22;40963;52.168;21.296;2023-07-09T06:35:56;20.00;90.20
55064;DHT22;40963;52.168;21.296;2023-07-09T06:38:23;20.10;89.80
55064;DHT22;40963;52.168;21.296;2023-07-09T06:40:49;20.10;88.50
55064;DHT22;40963;52.168;21.296;2023-07-09T06:43:14;20.20;87.50
55064;DHT22;40963;52.168;21.296;2023-07-09T06:45:49;20.30;86.70
55064;DHT22;40963;52.168;21.296;2023-07-09T06:48:15;20.40;86.80
55064;DHT22;40963;52.168;21.296;2023-07-09T06:50:40;20.40;86.90
55064;DHT22;40963;52.168;21.296;2023-07-09T06:53:06;20.50;85.10
55064;DHT22;40963;52.168;21.296;2023-07-09T06:55:31;20.60;84.20
55064;DHT22;40963;52.168;21.296;2023-07-09T06:57:57;20.60;84.00
55064;DHT22;40963;52.168;21.296;2023-07-09T07:00:23;20.60;82.90
55064;DHT22;40963;52.168;21.296;2023-07-09T07:02:48;20.60;82.70
55064;DHT22;40963;52.168;21.296;2023-07-09T07:05:14;20.70;82.90
55064;DHT22;40963;52.168;21.296;2023-07-09T07:07:40;20.80;82.50
55064;DHT22;40963;52.168;21.296;2023-07-09T07:10:06;20.80;81.70
55064;DHT22;40963;52.168;21.296;2023-07-09T07:12:42;20.90;81.80
55064;DHT22;40963;52.168;21.296;2023-07-09T07:15:08;21.10;81.80
55064;DHT22;40963;52.168;21.296;2023-07-09T07:17:33;21.20;81.40
55064;DHT22;40963;52.168;21.296;2023-07-09T07:19:59;21.20;80.00
55064;DHT22;40963;52.168;21.296;2023-07-09T07:22:25;21.30;79.90
55064;DHT22;40963;52.168;21.296;2023-07-09T07:24:51;21.30;78.90
55064;DHT22;40963;52.168;21.296;2023-07-09T07:27:17;21.40;77.80
55064;DHT22;40963;52.168;21.296;2023-07-09T07:29:43;21.40;76.60
55064;DHT22;40963;52.168;21.296;2023-07-09T07:32:10;21.40;76.10
55064;DHT22;40963;52.168;21.296;2023-07-09T07:34:35;21.50;75.80
55064;DHT22;40963;52.168;21.296;2023-07-09T07:37:01;21.50;75.90
55064;DHT22;40963;52.168;21.296;2023-07-09T07:39:27;21.60;75.30
55064;DHT22;40963;52.168;21.296;2023-07-09T07:41:52;21.70;75.10
55064;DHT22;40963;52.168;21.296;2023-07-09T07:44:18;21.70;74.40
55064;DHT22;40963;52.168;21.296;2023-07-09T07:46:43;21.80;74.90
55064;DHT22;40963;52.168;21.296;2023-07-09T07:49:10;21.80;73.40
55064;DHT22;40963;52.168;21.296;2023-07-09T07:51:36;21.90;72.70
55064;DHT22;40963;52.168;21.296;2023-07-09T07:54:02;21.90;72.30
55064;DHT22;40963;52.168;21.296;2023-07-09T07:56:28;22.00;71.70
55064;DHT22;40963;52.168;21.296;2023-07-09T07:58:54;22.10;71.00
55064;DHT22;40963;52.168;21.296;2023-07-09T08:01:19;22.20;70.40
55064;DHT22;40963;52.168;21.296;2023-07-09T08:03:45;22.20;70.10
55064;DHT22;40963;52.168;21.296;2023-07-09T08:06:10;22.30;70.90
55064;DHT22;40963;52.168;21.296;2023-07-09T08:08:37;22.30;70.40
55064;DHT22;40963;52.168;21.296;2023-07-09T08:11:05;22.40;69.20
55064;DHT22;40963;52.168;21.296;2023-07-09T08:13:32;22.40;68.90
55064;DHT22;40963;52.168;21.296;2023-07-09T08:15:58;22.50;67.10
55064;DHT22;40963;52.168;21.296;2023-07-09T08:18:24;22.50;67.00
55064;DHT22;40963;52.168;21.296;2023-07-09T08:20:49;22.50;66.20
55064;DHT22;40963;52.168;21.296;2023-07-09T08:23:15;22.60;66.30
55064;DHT22;40963;52.168;21.296;2023-07-09T08:25:40;22.60;65.30
55064;DHT22;40963;52.168;21.296;2023-07-09T08:28:06;22.70;64.80
55064;DHT22;40963;52.168;21.296;2023-07-09T08:30:33;22.70;64.70
55064;DHT22;40963;52.168;21.296;2023-07-09T08:32:59;22.70;63.80
55064;DHT22;40963;52.168;21.296;2023-07-09T08:35:26;22.80;63.50
55064;DHT22;40963;52.168;21.296;2023-07-09T08:37:52;22.80;63.30
55064;DHT22;40963;52.168;21.296;2023-07-09T08:40:18;22.90;63.10
55064;DHT22;40963;52.168;21.296;2023-07-09T08:42:46;23.00;63.00
55064;DHT22;40963;52.168;21.296;2023-07-09T08:50:36;23.10;60.90
55064;DHT22;40963;52.168;21.296;2023-07-09T08:53:05;23.20;60.30
55064;DHT22;40963;52.168;21.296;2023-07-09T08:55:34;23.20;60.40
55064;DHT22;40963;52.168;21.296;2023-07-09T08:58:15;23.30;59.50
55064;DHT22;40963;52.168;21.296;2023-07-09T09:00:55;23.40;60.40
55064;DHT22;40963;52.168;21.296;2023-07-09T09:03:34;23.60;60.20
55064;DHT22;40963;52.168;21.296;2023-07-09T09:06:01;23.60;59.40
55064;DHT22;40963;52.168;21.296;2023-07-09T09:13:49;23.80;57.40
55064;DHT22;40963;52.168;21.296;2023-07-09T09:16:25;23.90;56.70
55064;DHT22;40963;52.168;21.296;2023-07-09T09:18:55;24.00;56.40
55064;DHT22;40963;52.168;21.296;2023-07-09T09:21:32;24.10;56.20
55064;DHT22;40963;52.168;21.296;2023-07-09T09:27:04;24.20;56.10
55064;DHT22;40963;52.168;21.296;2023-07-09T09:29:30;24.20;55.50
55064;DHT22;40963;52.168;21.296;2023-07-09T09:31:58;24.10;54.90
55064;DHT22;40963;52.168;21.296;2023-07-09T09:34:27;24.20;54.00
55064;DHT22;40963;52.168;21.296;2023-07-09T09:36:55;24.10;52.90
55064;DHT22;40963;52.168;21.296;2023-07-09T09:39:22;24.10;52.70
55064;DHT22;40963;52.168;21.296;2023-07-09T09:41:48;24.20;53.20
55064;DHT22;40963;52.168;21.296;2023-07-09T09:44:25;24.30;52.90
55064;DHT22;40963;52.168;21.296;2023-07-09T09:46:51;24.20;52.80
55064;DHT22;40963;52.168;21.296;2023-07-09T09:49:17;24.30;53.20
55064;DHT22;40963;52.168;21.296;2023-07-09T09:51:45;24.40;53.50
55064;DHT22;40963;52.168;21.296;2023-07-09T09:54:20;24.50;53.40
55064;DHT22;40963;52.168;21.296;2023-07-09T09:56:49;24.50;53.20
55064;DHT22;40963;52.168;21.296;2023-07-09T09:59:32;24.60;52.60
55064;DHT22;40963;52.168;21.296;2023-07-09T10:01:59;24.60;53.30
55064;DHT22;40963;52.168;21.296;2023-07-09T10:04:26;24.60;52.50
55064;DHT22;40963;52.168;21.296;2023-07-09T10:06:57;24.60;51.80
55064;DHT22;40963;52.168;21.296;2023-07-09T10:09:52;24.70;52.10
55064;DHT22;40963;52.168;21.296;2023-07-09T10:12:56;24.70;51.40
55064;DHT22;40963;52.168;21.296;2023-07-09T10:15:28;24.70;51.70
55064;DHT22;40963;52.168;21.296;2023-07-09T10:20:44;24.80;51.60
55064;DHT22;40963;52.168;21.296;2023-07-09T10:24:06;24.80;51.30
55064;DHT22;40963;52.168;21.296;2023-07-09T10:26:13;24.90;52.10
55064;DHT22;40963;52.168;21.296;2023-07-09T10:34:17;25.00;51.40
55064;DHT22;40963;52.168;21.296;2023-07-09T10:37:11;25.10;51.10
55064;DHT22;40963;52.168;21.296;2023-07-09T10:39:45;25.20;49.20
55064;DHT22;40963;52.168;21.296;2023-07-09T10:42:28;25.20;49.40
55064;DHT22;40963;52.168;21.296;2023-07-09T10:45:13;25.20;49.00
55064;DHT22;40963;52.168;21.296;2023-07-09T10:47:46;25.30;48.50
55064;DHT22;40963;52.168;21.296;2023-07-09T10:50:22;25.30;47.60
55064;DHT22;40963;52.168;21.296;2023-07-09T10:52:52;25.30;48.70
55064;DHT22;40963;52.168;21.296;2023-07-09T10:55:53;25.20;47.40
55064;DHT22;40963;52.168;21.296;2023-07-09T10:58:21;25.30;47.90
55064;DHT22;40963;52.168;21.296;2023-07-09T11:00:48;25.30;47.60
55064;DHT22;40963;52.168;21.296;2023-07-09T11:03:19;25.40;47.70
55064;DHT22;40963;52.168;21.296;2023-07-09T11:05:49;25.40;46.70
55064;DHT22;40963;52.168;21.296;2023-07-09T11:08:18;25.40;47.70
55064;DHT22;40963;52.168;21.296;2023-07-09T11:10:52;25.60;47.80
55064;DHT22;40963;52.168;21.296;2023-07-09T11:16:28;25.60;46.90
55064;DHT22;40963;52.168;21.296;2023-07-09T11:19:00;25.70;47.50
55064;DHT22;40963;52.168;21.296;2023-07-09T11:21:27;25.70;47.00
55064;DHT22;40963;52.168;21.296;2023-07-09T11:23:55;25.80;46.50
55064;DHT22;40963;52.168;21.296;2023-07-09T11:29:08;25.80;46.40
55064;DHT22;40963;52.168;21.296;2023-07-09T11:31:37;25.80;46.50
55064;DHT22;40963;52.168;21.296;2023-07-09T11:36:34;25.80;45.40
55064;DHT22;40963;52.168;21.296;2023-07-09T11:39:00;25.80;45.60
55064;DHT22;40963;52.168;21.296;2023-07-09T11:41:42;25.80;46.10
55064;DHT22;40963;52.168;21.296;2023-07-09T11:47:21;25.90;46.00
55064;DHT22;40963;52.168;21.296;2023-07-09T11:49:52;25.90;45.90
55064;DHT22;40963;52.168;21.296;2023-07-09T11:52:39;25.90;45.30
55064;DHT22;40963;52.168;21.296;2023-07-09T11:58:03;25.80;45.70
55064;DHT22;40963;52.168;21.296;2023-07-09T12:00:36;25.90;46.50
55064;DHT22;40963;52.168;21.296;2023-07-09T12:03:03;26.00;46.30
55064;DHT22;40963;52.168;21.296;2023-07-09T12:05:29;25.90;45.70
55064;DHT22;40963;52.168;21.296;2023-07-09T12:07:56;26.00;46.60
55064;DHT22;40963;52.168;21.296;2023-07-09T12:10:26;26.00;46.10
55064;DHT22;40963;52.168;21.296;2023-07-09T12:12:57;26.00;45.40
55064;DHT22;40963;52.168;21.296;2023-07-09T12:15:26;26.00;45.40
55064;DHT22;40963;52.168;21.296;2023-07-09T12:17:54;26.10;45.80
55064;DHT22;40963;52.168;21.296;2023-07-09T12:20:20;26.20;45.90
55064;DHT22;40963;52.168;21.296;2023-07-09T12:22:46;26.20;46.60
55064;DHT22;40963;52.168;21.296;2023-07-09T12:25:21;26.40;46.10
55064;DHT22;40963;52.168;21.296;2023-07-09T12:27:47;26.40;45.20
55064;DHT22;40963;52.168;21.296;2023-07-09T12:30:13;26.40;44.80
55064;DHT22;40963;52.168;21.296;2023-07-09T12:32:46;26.50;44.50
55064;DHT22;40963;52.168;21.296;2023-07-09T12:35:13;26.50;44.70
55064;DHT22;40963;52.168;21.296;2023-07-09T12:37:42;26.50;44.80
55064;DHT22;40963;52.168;21.296;2023-07-09T12:40:30;26.50;45.10
55064;DHT22;40963;52.168;21.296;2023-07-09T12:42:56;26.50;44.40
55064;DHT22;40963;52.168;21.296;2023-07-09T12:45:23;26.50;44.90
55064;DHT22;40963;52.168;21.296;2023-07-09T12:47:49;26.50;43.90
55064;DHT22;40963;52.168;21.296;2023-07-09T12:50:27;26.50;44.80
55064;DHT22;40963;52.168;21.296;2023-07-09T12:52:55;26.50;45.10
55064;DHT22;40963;52.168;21.296;2023-07-09T12:55:26;26.50;45.60
55064;DHT22;40963;52.168;21.296;2023-07-09T12:57:56;26.50;45.30
55064;DHT22;40963;52.168;21.296;2023-07-09T13:00:25;26.50;45.50
55064;DHT22;40963;52.168;21.296;2023-07-09T13:02:55;26.50;45.30
55064;DHT22;40963;52.168;21.296;2023-07-09T13:05:23;26.50;45.20
55064;DHT22;40963;52.168;21.296;2023-07-09T13:08:02;26.50;45.30
55064;DHT22;40963;52.168;21.296;2023-07-09T13:10:30;26.40;44.90
55064;DHT22;40963;52.168;21.296;2023-07-09T13:13:04;26.40;44.90
55064;DHT22;40963;52.168;21.296;2023-07-09T13:16:00;26.50;45.00
55064;DHT22;40963;52.168;21.296;2023-07-09T13:18:27;26.50;44.90
55064;DHT22;40963;52.168;21.296;2023-07-09T13:20:54;26.60;45.20
55064;DHT22;40963;52.168;21.296;2023-07-09T13:23:24;26.70;45.00
55064;DHT22;40963;52.168;21.296;2023-07-09T13:25:50;26.70;44.50
55064;DHT22;40963;52.168;21.296;2023-07-09T13:28:28;26.60;44.30
55064;DHT22;40963;52.168;21.296;2023-07-09T13:31:11;26.70;44.70
55064;DHT22;40963;52.168;21.296;2023-07-09T13:33:38;26.60;44.60
55064;DHT22;40963;52.168;21.296;2023-07-09T13:36:04;26.60;44.40
55064;DHT22;40963;52.168;21.296;2023-07-09T13:38:32;26.50;44.00
55064;DHT22;40963;52.168;21.296;2023-07-09T13:41:01;26.50;44.60
55064;DHT22;40963;52.168;21.296;2023-07-09T13:43:35;26.40;44.60
55064;DHT22;40963;52.168;21.296;2023-07-09T13:46:03;26.40;44.80
55064;DHT22;40963;52.168;21.296;2023-07-09T13:48:30;26.40;45.50
55064;DHT22;40963;52.168;21.296;2023-07-09T13:50:57;26.40;45.20
55064;DHT22;40963;52.168;21.296;2023-07-09T13:53:30;26.40;45.20
55064;DHT22;40963;52.168;21.296;2023-07-09T13:55:56;26.50;45.50
55064;DHT22;40963;52.168;21.296;2023-07-09T13:58:24;26.60;45.70
55064;DHT22;40963;52.168;21.296;2023-07-09T14:00:56;26.60;45.10
55064;DHT22;40963;52.168;21.296;2023-07-09T14:03:28;26.70;45.40
55064;DHT22;40963;52.168;21.296;2023-07-09T14:05:54;26.70;44.80
55064;DHT22;40963;52.168;21.296;2023-07-09T14:08:20;26.70;44.70
55064;DHT22;40963;52.168;21.296;2023-07-09T14:10:47;26.80;44.40
55064;DHT22;40963;52.168;21.296;2023-07-09T14:13:15;26.70;44.80
55064;DHT22;40963;52.168;21.296;2023-07-09T14:15:41;26.70;45.40
55064;DHT22;40963;52.168;21.296;2023-07-09T14:18:15;26.80;45.10
55064;DHT22;40963;52.168;21.296;2023-07-09T14:20:42;27.00;44.70
55064;DHT22;40963;52.168;21.296;2023-07-09T14:23:11;27.10;44.30
55064;DHT22;40963;52.168;21.296;2023-07-09T14:25:37;27.10;44.30
55064;DHT22;40963;52.168;21.296;2023-07-09T14:28:29;27.10;43.60
55064;DHT22;40963;52.168;21.296;2023-07-09T14:30:55;27.00;43.30
55064;DHT22;40963;52.168;21.296;2023-07-09T14:33:21;26.90;43.60
55064;DHT22;40963;52.168;21.296;2023-07-09T14:35:47;26.90;43.40
55064;DHT22;40963;52.168;21.296;2023-07-09T14:38:24;26.80;43.40
55064;DHT22;40963;52.168;21.296;2023-07-09T14:40:52;26.80;43.70
55064;DHT22;40963;52.168;21.296;2023-07-09T14:43:18;26.90;44.00
55064;DHT22;40963;52.168;21.296;2023-07-09T14:45:44;26.90;44.00
55064;DHT22;40963;52.168;21.296;2023-07-09T14:48:15;27.00;43.80
55064;DHT22;40963;52.168;21.296;2023-07-09T14:50:42;27.00;43.80
55064;DHT22;40963;52.168;21.296;2023-07-09T14:53:14;27.00;43.80
55064;DHT22;40963;52.168;21.296;2023-07-09T14:55:41;27.00;44.40
55064;DHT22;40963;52.168;21.296;2023-07-09T14:58:18;27.00;44.20
55064;DHT22;40963;52.168;21.296;2023-07-09T15:00:45;27.00;44.00
55064;DHT22;40963;52.168;21.296;2023-07-09T15:03:22;27.00;44.10
55064;DHT22;40963;52.168;21.296;2023-07-09T15:05:48;26.90;44.20
55064;DHT22;40963;52.168;21.296;2023-07-09T15:08:16;26.90;43.40
55064;DHT22;40963;52.168;21.296;2023-07-09T15:10:42;27.00;43.60
55064;DHT22;40963;52.168;21.296;2023-07-09T15:13:21;27.00;43.60
55064;DHT22;40963;52.168;21.296;2023-07-09T15:15:49;27.00;44.30
55064;DHT22;40963;52.168;21.296;2023-07-09T15:18:15;27.10;44.30
55064;DHT22;40963;52.168;21.296;2023-07-09T15:20:52;27.00;43.80
55064;DHT22;40963;52.168;21.296;2023-07-09T15:23:18;27.10;44.50
55064;DHT22;40963;52.168;21.296;2023-07-09T15:25:44;27.00;44.00
55064;DHT22;40963;52.168;21.296;2023-07-09T15:28:11;26.90;43.60
55064;DHT22;40963;52.168;21.296;2023-07-09T15:30:37;26.90;43.70
55064;DHT22;40963;52.168;21.296;2023-07-09T15:33:04;26.90;43.80
55064;DHT22;40963;52.168;21.296;2023-07-09T15:35:34;27.00;44.10
55064;DHT22;40963;52.168;21.296;2023-07-09T15:38:26;27.00;44.10
55064;DHT22;40963;52.168;21.296;2023-07-09T15:40:49;27.00;44.40
55064;DHT22;40963;52.168;21.296;2023-07-09T15:43:15;27.00;44.50
55064;DHT22;40963;52.168;21.296;2023-07-09T15:45:46;26.90;44.30
55064;DHT22;40963;52.168;21.296;2023-07-09T15:50:52;26.80;44.70
55064;DHT22;40963;52.168;21.296;2023-07-09T15:53:18;26.70;44.90
55064;DHT22;40963;52.168;21.296;2023-07-09T15:55:45;26.70;44.70
55064;DHT22;40963;52.168;21.296;2023-07-09T15:58:24;26.60;44.70
55064;DHT22;40963;52.168;21.296;2023-07-09T16:00:51;26.50;44.90
55064;DHT22;40963;52.168;21.296;2023-07-09T16:03:17;26.50;45.00
55064;DHT22;40963;52.168;21.296;2023-07-09T16:05:43;26.50;45.20